Time;durP1;ratioP1;P1;durP2;ratioP2;P2;SDS_P1;SDS_P2;PMS_P1;PMS_P2;Temp;Humidity;BMP_temperature;BMP_pressure;BME280_temperature;BME280_humidity;BME280_pressure;Samples;Min_cycle;Max_cycle;Signal;HPM_P1;HPM_P2
2022/01/08 00:00:08;;;;;;;1.33;0.20;;;1.10;99.90;;;;;;4936240;29;20760;-88
2022/01/08 00:02:34;;;;;;;1.87;0.40;;;1.10;99.90;;;;;;4951150;28;20094;-88
2022/01/08 00:05:00;;;;;;;2.27;0.50;;;1.10;99.90;;;;;;4960165;28;20070;-88
2022/01/08 00:07:26;;;;;;;2.03;0.40;;;1.10;99.90;;;;;;4962177;28;20020;-88
2022/01/08 00:09:52;;;;;;;1.50;0.57;;;1.10;99.90;;;;;;4979926;28;20735;-87
2022/01/08 00:12:17;;;;;;;1.37;0.33;;;1.10;99.90;;;;;;4958140;28;20055;-88
2022/01/08 00:14:43;;;;;;;1.67;0.50;;;1.10;99.90;;;;;;4960349;28;20027;-88
2022/01/08 00:17:08;;;;;;;1.47;0.50;;;1.20;99.90;;;;;;4961183;28;20070;-88
2022/01/08 00:19:34;;;;;;;1.63;0.30;;;1.30;99.90;;;;;;4955285;28;20093;-87
2022/01/08 00:22:00;;;;;;;1.63;0.40;;;1.20;99.90;;;;;;4941372;29;20096;-89
2022/01/08 00:24:25;;;;;;;2.50;0.87;;;1.20;99.90;;;;;;4935663;29;20023;-88
2022/01/08 00:26:51;;;;;;;2.70;0.40;;;1.20;99.90;;;;;;4959110;29;20034;-89
2022/01/08 00:29:16;;;;;;;1.63;0.50;;;1.30;99.90;;;;;;4960138;28;20446;-88
2022/01/08 00:31:42;;;;;;;1.20;0.50;;;1.20;99.90;;;;;;4959091;28;20070;-88
2022/01/08 00:34:08;;;;;;;0.83;0.37;;;1.30;99.90;;;;;;4960031;29;20075;-88
2022/01/08 00:36:34;;;;;;;1.43;0.60;;;1.30;99.90;;;;;;4959282;29;20091;-88
2022/01/08 00:39:00;;;;;;;1.10;0.40;;;1.30;99.90;;;;;;4958178;28;20051;-88
2022/01/08 00:41:26;;;;;;;1.23;0.50;;;1.30;99.90;;;;;;4959308;28;20035;-88
2022/01/08 00:43:52;;;;;;;2.80;0.40;;;1.30;99.90;;;;;;4959003;28;20046;-88
2022/01/08 00:46:17;;;;;;;1.90;0.53;;;1.30;99.90;;;;;;4958388;28;20394;-88
2022/01/08 00:48:44;;;;;;;1.37;0.53;;;1.30;99.90;;;;;;4958442;28;20031;-88
2022/01/08 00:51:10;;;;;;;1.13;0.50;;;1.20;99.90;;;;;;4958254;29;20495;-88
2022/01/08 00:53:36;;;;;;;1.67;0.50;;;1.30;99.90;;;;;;4958823;28;20019;-88
2022/01/08 00:56:02;;;;;;;2.33;0.43;;;1.30;99.90;;;;;;4958633;29;20038;-88
2022/01/08 00:58:28;;;;;;;3.27;0.80;;;1.30;99.90;;;;;;4979090;23;20009;-85
2022/01/08 01:00:53;;;;;;;1.93;0.50;;;1.30;99.90;;;;;;4957328;28;20078;-85
2022/01/08 01:03:19;;;;;;;1.73;0.50;;;1.30;99.90;;;;;;4975947;28;20419;-85
2022/01/08 01:05:45;;;;;;;1.33;0.53;;;1.30;99.90;;;;;;4978374;28;20027;-85
2022/01/08 01:08:10;;;;;;;1.57;0.47;;;1.30;99.90;;;;;;4979382;28;20022;-85
2022/01/08 01:10:36;;;;;;;2.63;0.60;;;1.30;99.90;;;;;;4971311;28;20030;-85
2022/01/08 01:13:02;;;;;;;2.03;0.43;;;1.30;99.90;;;;;;4974145;28;20031;-86
2022/01/08 01:15:27;;;;;;;2.90;0.70;;;1.30;99.90;;;;;;4958129;28;20114;-85
2022/01/08 01:17:53;;;;;;;2.47;0.70;;;1.30;99.90;;;;;;4952787;28;20035;-86
2022/01/08 01:20:21;;;;;;;1.60;0.60;;;1.30;99.90;;;;;;4975122;28;20042;-86
2022/01/08 01:22:59;;;;;;;3.00;0.60;;;1.30;99.90;;;;;;4954616;28;20039;-85
2022/01/08 01:25:38;;;;;;;1.63;0.60;;;1.30;99.90;;;;;;4968452;28;20042;-86
2022/01/08 01:28:16;;;;;;;2.80;0.90;;;1.30;99.90;;;;;;4973646;28;20082;-86
2022/01/08 01:49:18;;;;;;;1.60;0.60;;;1.50;99.90;;;;;;4969042;28;20046;-86
2022/01/08 01:51:44;;;;;;;1.37;0.43;;;1.50;99.90;;;;;;4966148;28;20027;-86
2022/01/08 01:54:09;;;;;;;1.07;0.50;;;1.50;99.90;;;;;;4974743;28;20464;-86
2022/01/08 01:56:36;;;;;;;2.27;0.67;;;1.50;99.90;;;;;;4963467;28;20496;-86
2022/01/08 01:59:02;;;;;;;1.27;0.50;;;1.60;99.90;;;;;;4954200;28;20046;-86
2022/01/08 02:01:28;;;;;;;2.43;0.50;;;1.60;99.90;;;;;;4974685;28;20023;-86
2022/01/08 02:03:54;;;;;;;3.00;0.70;;;1.60;99.90;;;;;;4974688;28;20023;-85
2022/01/08 02:06:20;;;;;;;2.50;0.70;;;1.60;99.90;;;;;;4968198;28;20090;-85
2022/01/08 02:08:46;;;;;;;1.00;0.40;;;1.60;99.90;;;;;;4973030;28;20022;-86
2022/01/08 02:11:12;;;;;;;1.03;0.37;;;1.70;99.90;;;;;;4960662;28;21995;-85
2022/01/08 02:13:37;;;;;;;1.60;0.50;;;1.70;99.90;;;;;;4967342;28;20026;-86
2022/01/08 02:16:05;;;;;;;1.20;0.40;;;1.70;99.90;;;;;;4974226;28;20031;-86
2022/01/08 02:18:31;;;;;;;2.20;0.70;;;1.70;99.90;;;;;;4974177;28;20018;-86
2022/01/08 02:21:01;;;;;;;2.17;0.40;;;1.70;99.90;;;;;;4963796;28;20042;-85
2022/01/08 02:23:27;;;;;;;1.23;0.40;;;1.60;99.90;;;;;;4951025;28;20070;-86
2022/01/08 02:26:07;;;;;;;4.00;0.57;;;1.60;99.90;;;;;;4967710;28;20498;-85
2022/01/08 02:28:33;;;;;;;1.00;0.40;;;1.60;99.90;;;;;;4964816;28;20020;-86
2022/01/08 02:30:59;;;;;;;2.37;0.67;;;1.60;99.90;;;;;;4919081;29;20111;-86
2022/01/08 02:33:26;;;;;;;2.90;0.50;;;1.60;99.90;;;;;;4930247;29;20454;-85
2022/01/08 02:35:52;;;;;;;2.10;0.27;;;1.60;99.90;;;;;;4954170;29;20027;-86
2022/01/08 02:38:18;;;;;;;1.30;0.63;;;1.60;99.90;;;;;;4952783;29;20057;-86
2022/01/08 02:40:52;;;;;;;2.17;0.53;;;1.60;99.90;;;;;;4955960;28;20027;-85
2022/01/08 02:43:17;;;;;;;0.77;0.40;;;1.70;99.90;;;;;;4973134;28;20038;-86
2022/01/08 02:45:43;;;;;;;2.47;0.40;;;1.60;99.90;;;;;;4971870;28;20391;-86
2022/01/08 02:48:10;;;;;;;1.13;0.30;;;1.70;99.90;;;;;;4965662;28;20038;-86
2022/01/08 02:50:35;;;;;;;2.10;0.67;;;1.70;99.90;;;;;;4978329;28;20046;-86
2022/01/08 02:53:01;;;;;;;1.53;0.40;;;1.70;99.90;;;;;;4967353;28;20043;-86
2022/01/08 02:55:27;;;;;;;2.83;0.60;;;1.70;99.90;;;;;;4977796;28;20107;-86
2022/01/08 02:57:52;;;;;;;1.30;0.20;;;1.70;99.90;;;;;;4958109;28;20027;-86
2022/01/08 03:00:19;;;;;;;1.33;0.40;;;1.70;99.90;;;;;;4957754;28;20037;-86
2022/01/08 03:02:48;;;;;;;2.50;0.33;;;1.80;99.90;;;;;;4957168;28;20110;-86
2022/01/08 03:05:14;;;;;;;1.20;0.50;;;1.80;99.90;;;;;;4955846;29;20106;-86
2022/01/08 03:07:42;;;;;;;2.10;0.37;;;1.80;99.90;;;;;;4954702;28;20435;-86
2022/01/08 03:10:10;;;;;;;0.40;0.20;;;1.90;99.90;;;;;;4940317;29;20067;-85
2022/01/08 03:12:40;;;;;;;0.60;0.30;;;2.00;99.90;;;;;;4937010;29;20020;-86
2022/01/08 03:15:07;;;;;;;0.43;0.20;;;2.00;99.90;;;;;;4936755;29;20385;-85
2022/01/08 03:17:32;;;;;;;1.07;0.30;;;2.20;99.90;;;;;;4944320;28;20101;-87
2022/01/08 03:20:04;;;;;;;0.67;0.20;;;2.20;99.90;;;;;;4974742;28;20472;-86
2022/01/08 03:22:30;;;;;;;2.00;0.33;;;2.30;99.90;;;;;;4958342;28;20065;-86
2022/01/08 03:24:56;;;;;;;0.53;0.20;;;2.30;99.90;;;;;;4943571;29;20019;-86
2022/01/08 03:27:21;;;;;;;0.40;0.17;;;2.30;99.90;;;;;;4939300;29;20055;-86
2022/01/08 03:29:47;;;;;;;0.37;0.27;;;2.40;99.90;;;;;;4937985;29;20059;-86
2022/01/08 03:32:13;;;;;;;1.70;0.20;;;2.40;99.90;;;;;;4954146;29;20023;-86
2022/01/08 03:34:38;;;;;;;1.10;0.20;;;2.30;99.90;;;;;;4951753;29;20082;-86
2022/01/08 03:37:04;;;;;;;1.27;0.20;;;2.30;99.90;;;;;;4953415;28;20031;-86
2022/01/08 03:39:30;;;;;;;2.70;0.40;;;2.30;99.90;;;;;;4952218;29;20722;-86
2022/01/08 03:41:55;;;;;;;2.10;0.40;;;2.30;99.90;;;;;;4952396;28;20416;-86
2022/01/08 03:44:22;;;;;;;0.50;0.20;;;2.30;99.90;;;;;;4943867;28;20042;-87
2022/01/08 03:46:47;;;;;;;1.10;0.10;;;2.30;99.90;;;;;;4932947;29;20443;-87
2022/01/08 03:49:25;;;;;;;0.10;0.10;;;2.30;99.90;;;;;;4932737;29;20028;-86
2022/01/08 03:51:53;;;;;;;0.50;0.20;;;2.20;99.90;;;;;;4931971;28;20039;-86
2022/01/08 03:54:19;;;;;;;1.30;0.20;;;2.20;99.90;;;;;;4951726;29;20424;-86
2022/01/08 03:56:45;;;;;;;1.90;0.20;;;2.00;99.90;;;;;;4951969;29;20047;-87
2022/01/08 03:59:10;;;;;;;3.40;0.30;;;2.00;99.90;;;;;;4950857;28;20061;-86
2022/01/08 04:01:36;;;;;;;1.50;0.47;;;2.00;99.90;;;;;;4961208;28;20118;-87
2022/01/08 04:04:02;;;;;;;0.80;0.33;;;2.00;99.90;;;;;;4955760;28;20030;-87
2022/01/08 04:06:27;;;;;;;1.80;0.27;;;2.00;99.90;;;;;;4949450;28;20032;-87
2022/01/08 04:08:57;;;;;;;0.80;0.30;;;2.00;99.90;;;;;;4972309;28;20034;-85
2022/01/08 04:11:26;;;;;;;2.87;0.73;;;2.00;99.90;;;;;;4971038;28;20035;-87
2022/01/08 04:13:55;;;;;;;1.00;0.43;;;2.00;99.90;;;;;;4965513;28;20031;-87
2022/01/08 04:16:28;;;;;;;1.43;0.40;;;2.00;99.90;;;;;;4971365;28;20147;-87
2022/01/08 04:18:53;;;;;;;0.90;0.17;;;1.90;99.90;;;;;;4970919;28;20107;-87
2022/01/08 04:21:59;;;;;;;3.47;0.40;;;2.00;99.90;;;;;;4960780;28;20135;-87
2022/01/08 04:24:16;;;;;;;3.43;0.70;;;2.00;99.90;;;;;;4962026;28;20046;-86
2022/01/08 04:26:42;;;;;;;2.13;0.70;;;2.00;99.90;;;;;;4952329;28;20035;-87
2022/01/08 04:29:07;;;;;;;1.20;0.43;;;2.00;99.90;;;;;;4950952;29;20043;-86
2022/01/08 04:31:33;;;;;;;2.93;0.60;;;2.00;99.90;;;;;;4935988;29;20019;-87
2022/01/08 04:33:59;;;;;;;0.50;0.20;;;2.00;99.90;;;;;;4953181;29;20039;-87
2022/01/08 04:36:24;;;;;;;2.57;0.63;;;2.10;99.90;;;;;;4951832;29;20127;-87
2022/01/08 04:38:50;;;;;;;2.73;0.50;;;2.10;99.90;;;;;;4938017;28;20031;-87
2022/01/08 04:41:16;;;;;;;2.43;0.60;;;2.10;99.90;;;;;;4955424;28;20039;-87
2022/01/08 04:43:43;;;;;;;1.33;0.37;;;2.00;99.90;;;;;;4954848;28;20038;-87
2022/01/08 04:46:09;;;;;;;0.70;0.33;;;2.00;99.90;;;;;;4955178;28;20404;-87
2022/01/08 04:48:35;;;;;;;2.13;0.63;;;1.90;99.90;;;;;;4950878;28;20112;-87
2022/01/08 04:51:01;;;;;;;1.30;0.40;;;1.90;99.90;;;;;;4937397;29;20052;-86
2022/01/08 04:53:26;;;;;;;1.00;0.40;;;1.80;99.90;;;;;;4947517;29;20027;-87
2022/01/08 04:55:52;;;;;;;1.07;0.30;;;1.80;99.90;;;;;;4955283;28;20034;-87
2022/01/08 04:58:18;;;;;;;1.27;0.40;;;1.80;99.90;;;;;;4938652;28;20126;-87
2022/01/08 05:00:43;;;;;;;0.33;0.30;;;1.70;99.90;;;;;;4953855;29;20035;-87
2022/01/08 05:03:09;;;;;;;2.07;0.60;;;1.60;99.90;;;;;;4938924;29;20089;-87
2022/01/08 05:05:34;;;;;;;0.77;0.40;;;1.60;99.90;;;;;;4956694;28;20027;-86
2022/01/08 05:08:00;;;;;;;1.73;0.60;;;1.60;99.90;;;;;;4956142;29;21435;-87
2022/01/08 05:10:26;;;;;;;1.17;0.57;;;1.50;99.90;;;;;;4955301;29;20024;-87
2022/01/08 05:12:51;;;;;;;2.37;0.80;;;1.40;99.90;;;;;;4958636;28;20472;-87
2022/01/08 05:15:17;;;;;;;0.70;0.33;;;1.30;99.90;;;;;;4957986;28;20074;-86
2022/01/08 05:17:46;;;;;;;0.73;0.30;;;1.30;99.90;;;;;;4975155;28;20045;-87
2022/01/08 05:20:13;;;;;;;0.87;0.20;;;1.30;99.90;;;;;;4951612;28;20102;-88
2022/01/08 05:22:52;;;;;;;1.10;0.40;;;1.20;99.90;;;;;;4936696;29;20027;-87
2022/01/08 05:25:20;;;;;;;1.33;0.50;;;1.20;99.90;;;;;;4938536;29;20423;-86
2022/01/08 05:27:48;;;;;;;0.93;0.50;;;1.20;99.90;;;;;;4951588;28;20098;-87
2022/01/08 05:30:16;;;;;;;1.13;0.40;;;1.20;99.90;;;;;;4935259;29;20062;-87
2022/01/08 05:32:42;;;;;;;3.30;0.30;;;1.20;99.90;;;;;;4936486;29;20024;-86
2022/01/08 05:35:08;;;;;;;1.13;0.40;;;1.20;99.90;;;;;;4919559;29;20024;-87
2022/01/08 05:37:34;;;;;;;1.60;0.60;;;1.20;99.90;;;;;;4943428;29;20461;-87
2022/01/08 05:39:59;;;;;;;1.73;0.63;;;1.20;99.90;;;;;;4955073;29;20030;-86
2022/01/08 05:42:25;;;;;;;0.97;0.40;;;1.20;99.90;;;;;;4953940;28;20622;-87
2022/01/08 05:44:50;;;;;;;1.27;0.30;;;1.20;99.90;;;;;;4955386;29;20094;-87
2022/01/08 05:47:16;;;;;;;1.23;0.30;;;1.20;99.90;;;;;;4953341;28;20118;-87
2022/01/08 05:49:42;;;;;;;4.30;0.40;;;1.30;99.90;;;;;;4954768;28;20027;-87
2022/01/08 05:52:08;;;;;;;1.30;0.30;;;1.30;99.90;;;;;;4947519;29;20051;-87
2022/01/08 05:54:34;;;;;;;0.63;0.20;;;1.20;99.90;;;;;;4955312;29;20058;-87
2022/01/08 05:57:00;;;;;;;0.40;0.20;;;1.20;99.90;;;;;;4938067;29;20396;-87
2022/01/08 05:59:28;;;;;;;0.73;0.23;;;1.30;99.90;;;;;;4950607;28;20043;-88
2022/01/08 06:01:54;;;;;;;0.73;0.20;;;1.20;99.90;;;;;;4964567;28;20050;-87
2022/01/08 06:04:19;;;;;;;0.57;0.40;;;1.30;99.90;;;;;;4964840;28;20117;-87
2022/01/08 06:06:45;;;;;;;0.93;0.37;;;1.30;99.90;;;;;;4957166;28;20614;-88
2022/01/08 06:09:11;;;;;;;0.90;0.20;;;1.30;99.90;;;;;;4944796;29;20024;-87
2022/01/08 06:11:37;;;;;;;1.17;0.30;;;1.40;99.90;;;;;;4936007;29;20030;-88
2022/01/08 06:14:03;;;;;;;0.43;0.30;;;1.40;99.90;;;;;;4958334;28;20070;-87
2022/01/08 06:16:37;;;;;;;0.23;0.10;;;1.40;99.90;;;;;;4967697;28;20135;-87
2022/01/08 06:19:06;;;;;;;0.23;0.10;;;1.40;99.90;;;;;;4953928;29;20506;-87
2022/01/08 06:21:32;;;;;;;0.10;0.10;;;1.40;99.90;;;;;;4955203;28;20490;-87
2022/01/08 06:23:58;;;;;;;0.00;0.00;;;1.40;99.90;;;;;;4950757;28;20023;-87
2022/01/08 06:26:24;;;;;;;0.00;0.00;;;1.40;99.90;;;;;;4953616;29;20034;-87
2022/01/08 06:28:51;;;;;;;0.43;0.13;;;1.40;99.90;;;;;;4955253;28;20023;-87
2022/01/08 06:31:18;;;;;;;0.17;0.10;;;1.40;99.90;;;;;;4938783;29;20480;-87
2022/01/08 06:33:44;;;;;;;0.73;0.17;;;1.40;99.90;;;;;;4938799;29;20035;-87
2022/01/08 06:36:10;;;;;;;0.00;0.00;;;1.40;99.90;;;;;;4938723;29;20023;-88
2022/01/08 06:38:35;;;;;;;0.30;0.10;;;1.30;99.90;;;;;;4953601;29;20117;-87
2022/01/08 06:41:01;;;;;;;0.40;0.20;;;1.30;99.90;;;;;;4938190;29;20038;-87
2022/01/08 06:43:26;;;;;;;0.20;0.10;;;1.30;99.90;;;;;;4939294;29;20047;-88
2022/01/08 06:45:55;;;;;;;0.43;0.20;;;1.30;99.90;;;;;;4934276;29;20024;-88
2022/01/08 06:48:21;;;;;;;0.03;0.00;;;1.30;99.90;;;;;;4935149;29;20050;-88
2022/01/08 06:50:46;;;;;;;0.40;0.00;;;1.30;99.90;;;;;;4937300;29;20031;-88
2022/01/08 06:53:12;;;;;;;0.80;0.10;;;1.30;99.90;;;;;;4945055;28;20031;-88
2022/01/08 06:55:38;;;;;;;0.20;0.00;;;1.30;99.90;;;;;;4954831;28;20023;-88
2022/01/08 06:58:04;;;;;;;0.30;0.10;;;1.30;99.90;;;;;;4936684;29;20393;-88
2022/01/08 07:00:33;;;;;;;0.27;0.13;;;1.30;99.90;;;;;;5055171;23;20039;-85
2022/01/08 07:03:02;;;;;;;0.37;0.10;;;1.30;99.90;;;;;;4960462;28;20364;-85
2022/01/08 07:05:33;;;;;;;0.00;0.00;;;1.30;99.90;;;;;;4977747;28;20035;-85
2022/01/08 07:08:04;;;;;;;0.22;0.10;;;1.30;99.90;;;;;;4964045;28;20041;-85
2022/01/08 07:10:52;;;;;;;2.77;0.13;;;1.30;99.90;;;;;;4976205;28;20102;-86
2022/01/08 07:13:23;;;;;;;0.87;0.20;;;1.30;99.90;;;;;;4956640;28;20043;-85
2022/01/08 07:15:59;;;;;;;0.20;0.20;;;1.30;99.90;;;;;;4961594;28;20506;-85
2022/01/08 07:18:30;;;;;;;0.60;0.30;;;1.20;99.90;;;;;;4969539;28;20503;-85
2022/01/08 07:20:59;;;;;;;1.23;0.45;;;1.20;99.90;;;;;;4965075;28;20348;-86
2022/01/08 07:23:25;;;;;;;0.10;0.10;;;1.30;99.90;;;;;;4960298;28;20126;-85
2022/01/08 07:25:53;;;;;;;0.73;0.20;;;1.30;99.90;;;;;;4953716;28;20528;-86
2022/01/08 07:28:28;;;;;;;0.50;0.20;;;1.20;99.90;;;;;;4938531;29;20028;-86
2022/01/08 07:31:00;;;;;;;0.70;0.30;;;1.30;99.90;;;;;;4933884;28;20022;-86
2022/01/08 07:33:28;;;;;;;0.73;0.17;;;1.20;99.90;;;;;;4940486;28;20035;-86
2022/01/08 07:35:57;;;;;;;0.70;0.47;;;1.20;99.90;;;;;;4956262;28;20032;-86
2022/01/08 07:38:36;;;;;;;0.47;0.20;;;1.20;99.90;;;;;;4969407;28;20057;-86
2022/01/08 07:41:04;;;;;;;2.47;0.33;;;1.20;99.90;;;;;;4957423;28;20035;-86
2022/01/08 07:43:30;;;;;;;0.70;0.20;;;1.20;99.90;;;;;;4955055;29;20121;-86
2022/01/08 07:45:59;;;;;;;1.13;0.40;;;1.20;99.90;;;;;;4969788;28;20059;-86
2022/01/08 07:48:28;;;;;;;0.80;0.30;;;1.20;99.90;;;;;;4967225;28;20029;-86
2022/01/08 07:50:54;;;;;;;2.73;0.60;;;1.20;99.90;;;;;;4955799;28;20028;-87
2022/01/08 07:53:30;;;;;;;1.77;0.53;;;1.20;99.90;;;;;;4955606;28;20032;-86
2022/01/08 07:55:58;;;;;;;1.40;0.53;;;1.20;99.90;;;;;;4955016;29;20019;-86
2022/01/08 07:58:24;;;;;;;1.50;0.47;;;1.20;99.90;;;;;;4950963;28;20028;-87
2022/01/08 08:00:53;;;;;;;2.40;0.50;;;1.20;99.90;;;;;;4935948;29;20399;-86
2022/01/08 08:03:25;;;;;;;1.50;0.47;;;1.20;99.90;;;;;;4936878;29;20031;-86
2022/01/08 08:05:51;;;;;;;1.90;0.75;;;1.20;99.90;;;;;;4936016;29;20027;-86
2022/01/08 08:08:18;;;;;;;1.50;0.47;;;1.20;99.90;;;;;;4943507;28;20058;-86
2022/01/08 08:10:50;;;;;;;1.47;0.30;;;1.20;99.90;;;;;;4955119;28;20729;-86
2022/01/08 08:13:26;;;;;;;2.10;0.55;;;1.10;99.90;;;;;;4956072;29;20027;-87
2022/01/08 08:15:52;;;;;;;2.80;0.50;;;1.20;99.90;;;;;;4956858;28;20033;-86
2022/01/08 08:18:27;;;;;;;1.40;0.60;;;1.20;99.90;;;;;;4955505;28;20099;-86
2022/01/08 08:20:54;;;;;;;3.50;0.63;;;1.20;99.90;;;;;;4989791;23;20039;-86
2022/01/08 08:23:23;;;;;;;1.10;0.40;;;1.20;99.90;;;;;;4994715;28;20105;-86
2022/01/08 08:25:52;;;;;;;1.93;0.40;;;1.20;99.90;;;;;;4979711;28;20042;-86
2022/01/08 08:28:23;;;;;;;5.30;1.23;;;1.20;99.90;;;;;;4999969;28;20037;-86
2022/01/08 08:31:04;;;;;;;1.08;0.40;;;1.20;99.90;;;;;;4982599;28;20022;-86
2022/01/08 08:33:37;;;;;;;1.93;0.80;;;1.20;99.90;;;;;;4999492;28;20026;-86
2022/01/08 08:36:19;;;;;;;2.07;0.73;;;1.20;99.90;;;;;;4960960;29;20114;-87
2022/01/08 08:38:48;;;;;;;2.38;0.55;;;1.20;99.90;;;;;;4961068;29;20101;-86
2022/01/08 08:41:16;;;;;;;1.70;0.30;;;1.30;99.90;;;;;;4964550;29;20042;-86
2022/01/08 08:43:45;;;;;;;2.47;0.60;;;1.30;99.90;;;;;;4975520;28;20620;-87
2022/01/08 08:46:10;;;;;;;1.57;0.60;;;1.30;99.90;;;;;;4999680;28;20034;-85
2022/01/08 08:48:43;;;;;;;4.47;0.50;;;1.40;99.90;;;;;;4990511;28;20035;-86
2022/01/08 08:51:08;;;;;;;;;;;1.40;99.90;;;;;;4987222;28;20018;-86
2022/01/08 08:53:34;;;;;;;0.70;0.20;;;1.50;99.90;;;;;;5005024;28;19905;-86
2022/01/08 08:56:04;;;;;;;1.83;0.50;;;1.40;99.90;;;;;;5002410;28;20410;-86
2022/01/08 08:58:33;;;;;;;1.77;0.43;;;1.50;99.90;;;;;;4986917;28;20026;-86
2022/01/08 09:00:59;;;;;;;1.87;0.50;;;1.60;99.90;;;;;;4983290;28;20511;-86
2022/01/08 09:03:28;;;;;;;0.90;0.30;;;1.60;99.90;;;;;;4983318;28;20030;-86
2022/01/08 09:05:59;;;;;;;0.83;0.40;;;1.60;99.90;;;;;;4993846;28;20085;-85
2022/01/08 09:08:36;;;;;;;2.63;0.65;;;1.70;99.90;;;;;;5001525;28;20022;-86
2022/01/08 09:11:11;;;;;;;2.57;0.40;;;1.70;99.90;;;;;;5003514;28;20054;-86
2022/01/08 09:13:47;;;;;;;0.70;0.40;;;1.70;99.90;;;;;;4985357;28;20065;-87
2022/01/08 09:16:16;;;;;;;0.90;0.40;;;1.80;99.90;;;;;;4972981;28;20094;-86
2022/01/08 09:18:45;;;;;;;1.40;0.43;;;1.70;99.90;;;;;;4993601;28;20030;-85
2022/01/08 09:21:11;;;;;;;2.13;0.60;;;1.80;99.90;;;;;;4993315;28;20054;-86
2022/01/08 09:23:47;;;;;;;1.43;0.50;;;1.80;99.90;;;;;;4988024;28;20031;-86
2022/01/08 09:26:19;;;;;;;1.00;0.30;;;1.70;99.90;;;;;;4985521;28;20058;-86
2022/01/08 09:28:47;;;;;;;2.77;0.30;;;1.80;99.90;;;;;;4968924;28;20399;-86
2022/01/08 09:31:18;;;;;;;1.90;0.63;;;1.80;99.90;;;;;;5002409;28;20060;-86
2022/01/08 09:33:44;;;;;;;3.57;0.40;;;1.80;99.90;;;;;;5003121;28;20022;-86
2022/01/08 09:36:10;;;;;;;1.60;0.50;;;1.80;99.90;;;;;;5005978;28;20026;-86
2022/01/08 09:38:36;;;;;;;0.60;0.30;;;1.90;99.90;;;;;;4992688;28;20120;-87
2022/01/08 09:41:07;;;;;;;1.93;0.90;;;1.80;99.90;;;;;;4983167;28;20349;-86
2022/01/08 09:43:42;;;;;;;2.50;0.80;;;1.90;99.90;;;;;;4982294;28;20114;-87
2022/01/08 09:46:15;;;;;;;1.90;0.67;;;1.90;99.90;;;;;;4973045;28;20618;-86
2022/01/08 09:48:44;;;;;;;1.07;0.60;;;1.90;99.90;;;;;;4981539;28;20035;-87
2022/01/08 09:51:32;;;;;;;1.23;0.60;;;2.00;99.90;;;;;;4980235;28;20054;-86
2022/01/08 09:54:06;;;;;;;2.73;0.57;;;2.00;99.90;;;;;;4979763;28;20042;-86
2022/01/08 09:56:35;;;;;;;1.03;0.50;;;2.00;99.90;;;;;;4960987;29;20108;-87
2022/01/08 09:59:07;;;;;;;2.40;0.60;;;2.00;99.90;;;;;;4959126;29;20049;-86
2022/01/08 10:01:37;;;;;;;1.35;0.43;;;2.10;99.90;;;;;;4946019;29;20035;-87
2022/01/08 10:04:26;;;;;;;1.83;0.60;;;2.10;99.90;;;;;;4979837;28;20065;-87
2022/01/08 10:07:26;;;;;;;1.60;0.70;;;2.10;99.90;;;;;;4987765;28;20031;-87
2022/01/08 10:10:27;;;;;;;0.80;0.40;;;2.00;99.90;;;;;;4982542;28;20026;-87
2022/01/08 10:13:00;;;;;;;1.23;0.43;;;2.00;99.90;;;;;;4977064;28;20510;-87
2022/01/08 10:18:36;;;;;;;2.13;0.57;;;2.10;99.90;;;;;;4982327;28;20037;-87
2022/01/08 10:21:34;;;;;;;1.50;0.37;;;2.10;99.90;;;;;;4980431;28;20030;-87
2022/01/08 10:24:20;;;;;;;;;;;;;;;;;;;;;
2022/01/08 10:26:49;;;;;;;3.43;0.53;;;2.20;99.90;;;;;;4979717;28;20554;-87
2022/01/08 10:29:28;;;;;;;3.13;0.60;;;2.10;99.90;;;;;;4965430;28;20410;-87
2022/01/08 10:32:09;;;;;;;2.67;0.87;;;2.20;99.90;;;;;;4967879;28;20090;-87
2022/01/08 10:35:24;;;;;;;1.73;0.60;;;2.20;99.90;;;;;;4982755;28;20514;-89
2022/01/08 10:41:44;;;;;;;2.97;0.40;;;2.20;99.90;;;;;;4982173;28;20046;-90
2022/01/08 10:44:54;;;;;;;3.27;0.60;;;2.10;99.90;;;;;;5006451;28;20112;-88
2022/01/08 10:47:21;;;;;;;0.90;0.40;;;2.10;99.90;;;;;;4921463;29;20043;-87
2022/01/08 10:50:26;;;;;;;0.80;0.40;;;2.10;99.90;;;;;;4963792;28;20061;-89
2022/01/08 10:53:49;;;;;;;2.40;0.70;;;2.10;99.90;;;;;;5002057;28;20022;-89
2022/01/08 10:56:56;;;;;;;2.47;0.40;;;2.10;99.90;;;;;;4917792;29;20040;-89
2022/01/08 10:59:52;;;;;;;1.10;0.57;;;2.00;99.90;;;;;;4897921;29;20056;-90
2022/01/08 11:06:53;;;;;;;;;;;;;;;;;;;;;
2022/01/08 11:44:06;;;;;;;;;;;;;;;;;;;;;
2022/01/08 11:47:25;;;;;;;1.23;0.40;;;2.50;99.90;;;;;;4929675;29;20116;-89
2022/01/08 11:55:43;;;;;;;2.17;0.40;;;2.40;99.90;;;;;;4267741;26;20061;-89
2022/01/08 12:06:32;;;;;;;0.67;0.23;;;2.50;99.90;;;;;;4929017;29;20032;-89
2022/01/08 12:33:42;;;;;;;;;;;;;;;;;;;;;
2022/01/08 12:36:50;;;;;;;;;;;;;;;;;;;;;
2022/01/08 12:40:19;;;;;;;;;;;;;;;;;;;;;
2022/01/08 13:02:46;;;;;;;1.60;0.47;;;3.00;99.90;;;;;;4959203;28;20054;-89
2022/01/08 13:05:12;;;;;;;0.83;0.40;;;2.90;99.90;;;;;;4961411;28;20384;-90
2022/01/08 13:07:50;;;;;;;0.70;0.23;;;2.90;99.90;;;;;;4946093;28;20048;-89
2022/01/08 13:10:16;;;;;;;0.80;0.20;;;2.80;99.90;;;;;;4963125;28;20027;-89
2022/01/08 13:13:04;;;;;;;2.63;0.40;;;2.80;99.90;;;;;;4957407;28;20024;-88
2022/01/08 13:15:31;;;;;;;0.50;0.23;;;2.80;99.90;;;;;;4938693;29;20024;-89
2022/01/08 13:18:24;;;;;;;1.33;0.30;;;2.80;99.90;;;;;;4953341;29;20024;-89
2022/01/08 13:20:59;;;;;;;;;;;2.80;99.90;;;;;;4955393;29;20024;-89
2022/01/08 13:23:26;;;;;;;2.30;0.40;;;2.70;99.90;;;;;;4953932;28;20379;-89
2022/01/08 13:25:53;;;;;;;0.77;0.30;;;2.70;99.90;;;;;;4936284;29;20032;-90
2022/01/08 13:28:26;;;;;;;3.47;0.60;;;2.70;99.90;;;;;;4940721;29;20029;-89
2022/01/08 13:30:53;;;;;;;2.03;0.40;;;2.60;99.90;;;;;;4955697;29;20110;-89
2022/01/08 13:33:27;;;;;;;3.03;0.40;;;2.60;99.90;;;;;;4956320;29;20443;-89
2022/01/08 13:35:59;;;;;;;2.53;0.30;;;2.60;99.90;;;;;;4955828;29;20028;-89
2022/01/08 13:38:35;;;;;;;1.60;0.32;;;2.50;99.90;;;;;;4970539;28;20035;-89
2022/01/08 13:41:10;;;;;;;0.70;0.20;;;2.50;99.90;;;;;;4955605;28;20396;-89
2022/01/08 13:44:02;;;;;;;0.97;0.30;;;2.50;99.90;;;;;;4956502;28;20027;-89
2022/01/08 13:46:32;;;;;;;0.85;0.10;;;2.50;99.90;;;;;;4955513;29;20028;-89
2022/01/08 13:48:59;;;;;;;1.50;0.40;;;2.40;99.90;;;;;;4954527;29;20065;-87
2022/01/08 13:51:31;;;;;;;0.90;0.53;;;2.50;99.90;;;;;;4956297;28;20035;-87
2022/01/08 13:54:06;;;;;;;2.70;0.67;;;2.50;99.90;;;;;;4955446;29;20078;-87
2022/01/08 13:56:33;;;;;;;1.77;0.50;;;2.50;99.90;;;;;;4955043;29;20027;-88
2022/01/08 13:59:17;;;;;;;2.13;0.60;;;2.50;99.90;;;;;;4937025;29;20103;-87
2022/01/08 14:01:49;;;;;;;4.10;0.33;;;2.50;99.90;;;;;;4937873;29;20779;-88
2022/01/08 14:04:19;;;;;;;1.10;0.30;;;2.50;99.90;;;;;;4939390;29;20028;-90
2022/01/08 14:06:45;;;;;;;1.70;0.40;;;2.50;99.90;;;;;;4953749;29;20027;-91
2022/01/08 14:09:17;;;;;;;1.67;0.30;;;2.40;99.90;;;;;;4959173;29;20058;-92
2022/01/08 14:11:44;;;;;;;1.55;0.30;;;2.40;99.90;;;;;;4957256;29;20551;-91
2022/01/08 14:14:18;;;;;;;4.20;0.33;;;2.40;99.90;;;;;;4958336;28;20078;-90
2022/01/08 14:16:44;;;;;;;0.50;0.20;;;2.40;99.90;;;;;;4955032;29;20031;-89
2022/01/08 14:19:13;;;;;;;1.87;0.50;;;2.50;99.90;;;;;;4954988;28;20039;-89
2022/01/08 14:21:41;;;;;;;1.30;0.37;;;2.50;99.90;;;;;;4955182;28;20039;-89
2022/01/08 14:24:18;;;;;;;1.07;0.50;;;2.60;99.90;;;;;;4954072;29;20031;-89
2022/01/08 14:27:10;;;;;;;0.30;0.20;;;2.60;99.90;;;;;;4955799;28;20039;-87
2022/01/08 14:29:41;;;;;;;0.68;0.30;;;2.60;99.90;;;;;;4937393;29;20449;-87
2022/01/08 14:32:10;;;;;;;3.03;0.63;;;2.60;99.90;;;;;;4934859;29;20023;-88
2022/01/08 14:34:43;;;;;;;1.27;0.40;;;2.70;99.90;;;;;;4936125;29;20266;-87
2022/01/08 14:37:13;;;;;;;1.13;0.40;;;2.70;99.90;;;;;;4947961;29;20059;-87
2022/01/08 14:39:42;;;;;;;1.10;0.40;;;2.70;99.90;;;;;;4953830;29;20031;-88
2022/01/08 14:42:19;;;;;;;1.93;0.40;;;2.70;99.90;;;;;;4955129;29;20035;-87
2022/01/08 14:45:02;;;;;;;1.40;0.37;;;2.70;99.90;;;;;;4955354;28;20027;-87
2022/01/08 14:47:41;;;;;;;2.20;0.70;;;2.70;99.90;;;;;;4954978;28;20035;-88
2022/01/08 14:50:11;;;;;;;1.30;0.20;;;2.70;99.90;;;;;;4954160;29;20031;-87
2022/01/08 14:52:41;;;;;;;1.07;0.30;;;2.60;99.90;;;;;;4953277;29;20035;-87
2022/01/08 14:55:09;;;;;;;6.57;0.23;;;2.60;99.90;;;;;;4952378;29;20082;-88
2022/01/08 14:57:35;;;;;;;0.80;0.23;;;2.50;99.90;;;;;;4952715;29;20046;-88
2022/01/08 15:00:01;;;;;;;0.83;0.30;;;2.50;99.90;;;;;;4952167;29;20028;-88
2022/01/08 15:02:28;;;;;;;1.43;0.40;;;2.50;99.90;;;;;;4952211;29;20039;-87
2022/01/08 15:04:54;;;;;;;0.30;0.20;;;2.40;99.90;;;;;;4952761;29;20499;-87
2022/01/08 15:07:20;;;;;;;0.57;0.27;;;2.40;99.90;;;;;;4953539;28;20042;-90
2022/01/08 15:09:45;;;;;;;0.70;0.20;;;2.40;99.90;;;;;;4954162;28;20024;-89
2022/01/08 15:12:11;;;;;;;0.83;0.20;;;2.40;99.90;;;;;;4955656;28;20023;-90
2022/01/08 15:14:37;;;;;;;2.20;0.30;;;2.30;99.90;;;;;;4954280;28;20070;-90
2022/01/08 15:17:06;;;;;;;1.97;0.30;;;2.40;99.90;;;;;;4954188;29;20079;-88
2022/01/08 15:19:32;;;;;;;0.43;0.20;;;2.40;99.90;;;;;;4952897;29;20046;-88
2022/01/08 15:21:58;;;;;;;1.57;0.30;;;2.40;99.90;;;;;;4952560;29;20391;-88
2022/01/08 15:24:26;;;;;;;0.60;0.10;;;2.50;99.90;;;;;;4951430;29;20038;-88